Hovedside
METAR-TAF:

METAR-TAF

Lufthavner :

Oslo, Norge

Oslo lufthavn

breddegrad: 60-12N, lengdegrad: 011-05E, høyde over havet: 208 m

Gjeldene værobservasjon

Denne rapporten ble laget for 23 minutter siden, klokken 20:20 UTC
Vind 7 kt fra Nord-nordvest, skiftende mellom Vest-nordvest og Nord-nordøst
Temperatur 12°C
Luftfuktighet 50%
Trykk 1021 hPa
Sikt 10 km eller mer
ingen skyer under 1500 m og ingen bygeskyer

METAR: ENGM 262020Z 34007KT 290V030 CAVOK 12/02 Q1021 NOSIG

Tid: 22:43 (20:43 UTC)

Varsel

Varsel gyldig fra 26. klokken 18 UTC til 27. klokken 18 UTC
Vind 5 kt fra Nord-nordvest
Sikt 10 km eller mer
ingen skyer under 1500 m og ingen bygeskyer
Sannsynlighet 30%
fra 27. klokken 02 UTC til 27. klokken 08 UTC
Sikt: 2000 m
Brutte skyer i en høyde av 200 ft
tåkebanker

TAF: ENGM 2618/2718 33005KT CAVOK PROB30 2702/2708 2000 BCFG BKN002

Værobservasjoner og værvarsel for over 4000 flyplasser (METAR- og TAF-rapporter).

Tilgjengelige stasjoner er representert av de røde og gule prikkene på kartet.

Hold musepekeren over prikken for å se navnet på stasjonen.

Klikk så for å se værobservasjoner og -varsler.

For å forandre kartet kan du klikke på den grønne knappen med svart kryss for å zoome inn, på den grønne knappen med strek for å zoome ut, eller på de grønne pilene for å se tilstøtende kart.


METAR-TAF: